TimePST,TemperatureF,Dew PointF,Humidity,Sea Level PressureIn,VisibilityMPH,Wind Direction,Wind SpeedMPH,Gust SpeedMPH,PrecipitationIn,Events,Conditions,WindDirDegrees,DateUTC
12:53 AM,35.1,30.0,82,30.28,10.0,South,6.9,-,N/A,,Clear,190,2014-01-10 08:53:00
1:53 AM,30.9,27.0,85,30.29,10.0,Calm,Calm,-,N/A,,Clear,0,2014-01-10 09:53:00
2:53 AM,28.0,25.0,88,30.29,10.0,SSW,5.8,-,N/A,,Clear,200,2014-01-10 10:53:00
3:53 AM,28.0,26.1,92,30.30,10.0,SW,4.6,-,N/A,,Clear,230,2014-01-10 11:53:00
4:53 AM,27.0,25.0,92,30.30,10.0,WSW,8.1,-,N/A,,Scattered Clouds,240,2014-01-10 12:53:00
5:53 AM,25.0,23.0,92,30.32,10.0,Calm,Calm,-,N/A,,Partly Cloudy,0,2014-01-10 13:53:00
6:53 AM,24.1,21.9,91,30.32,10.0,Calm,Calm,-,N/A,,Clear,0,2014-01-10 14:53:00
7:53 AM,24.1,23.0,96,30.33,10.0,Calm,Calm,-,N/A,,Mostly Cloudy,0,2014-01-10 15:53:00
8:53 AM,27.0,25.0,92,30.34,10.0,West,3.5,-,N/A,,Partly Cloudy,270,2014-01-10 16:53:00
9:53 AM,33.1,30.0,89,30.35,10.0,Calm,Calm,-,N/A,,Mostly Cloudy,0,2014-01-10 17:53:00
10:53 AM,36.0,30.9,82,30.34,10.0,Calm,Calm,-,N/A,,Overcast,0,2014-01-10 18:53:00
11:53 AM,39.9,32.0,73,30.32,10.0,Calm,Calm,-,N/A,,Overcast,0,2014-01-10 19:53:00
12:53 PM,43.0,34.0,71,30.29,10.0,WSW,3.5,-,N/A,,Overcast,250,2014-01-10 20:53:00
1:53 PM,45.0,34.0,65,30.27,10.0,SW,4.6,-,N/A,,Mostly Cloudy,230,2014-01-10 21:53:00
2:53 PM,48.0,34.0,58,30.25,10.0,SSW,3.5,-,N/A,,Partly Cloudy,200,2014-01-10 22:53:00
3:53 PM,48.0,33.1,56,30.24,10.0,Calm,Calm,-,N/A,,Mostly Cloudy,0,2014-01-10 23:53:00
4:53 PM,46.0,34.0,63,30.24,10.0,North,3.5,-,N/A,,Overcast,350,2014-01-11 00:53:00
5:53 PM,41.0,32.0,70,30.26,10.0,Calm,Calm,-,N/A,,Mostly Cloudy,0,2014-01-11 01:53:00
6:53 PM,37.0,28.9,73,30.26,10.0,Calm,Calm,-,N/A,,Clear,0,2014-01-11 02:53:00
7:53 PM,35.1,28.0,76,30.26,10.0,Calm,Calm,-,N/A,,Clear,0,2014-01-11 03:53:00
8:53 PM,33.1,27.0,78,30.24,10.0,North,3.5,-,N/A,,Clear,10,2014-01-11 04:53:00
9:53 PM,30.9,26.1,82,30.23,10.0,Calm,Calm,-,N/A,,Clear,0,2014-01-11 05:53:00
10:53 PM,33.1,28.9,85,30.19,10.0,NNE,8.1,-,N/A,,Clear,20,2014-01-11 06:53:00
11:53 PM,33.1,28.0,82,30.16,10.0,ENE,5.8,-,N/A,,Partly Cloudy,70,2014-01-11 07:53:00